sensor_id;sensor_type;location;lat;lon;timestamp;P1;durP1;ratioP1;P2;durP2;ratioP2
46889;SDS011;32625;51.080;16.970;2023-04-25T00:00:14;2.08;;;1.48;;
46889;SDS011;32625;51.080;16.970;2023-04-25T00:02:42;2.42;;;1.77;;
46889;SDS011;32625;51.080;16.970;2023-04-25T00:05:09;6.25;;;1.50;;
46889;SDS011;32625;51.080;16.970;2023-04-25T00:07:37;1.85;;;1.70;;
46889;SDS011;32625;51.080;16.970;2023-04-25T00:13:46;3.05;;;1.50;;
46889;SDS011;32625;51.080;16.970;2023-04-25T00:16:17;1.60;;;1.45;;
46889;SDS011;32625;51.080;16.970;2023-04-25T00:18:45;3.53;;;1.60;;
46889;SDS011;32625;51.080;16.970;2023-04-25T00:24:45;3.50;;;1.60;;
46889;SDS011;32625;51.080;16.970;2023-04-25T00:27:12;2.35;;;1.55;;
46889;SDS011;32625;51.080;16.970;2023-04-25T00:29:40;4.88;;;1.70;;
46889;SDS011;32625;51.080;16.970;2023-04-25T00:32:07;2.30;;;1.50;;
46889;SDS011;32625;51.080;16.970;2023-04-25T00:34:35;2.08;;;1.60;;
46889;SDS011;32625;51.080;16.970;2023-04-25T00:37:02;6.05;;;1.50;;
46889;SDS011;32625;51.080;16.970;2023-04-25T00:39:29;3.00;;;1.70;;
46889;SDS011;32625;51.080;16.970;2023-04-25T05:56:14;7.88;;;5.15;;
46889;SDS011;32625;51.080;16.970;2023-04-25T05:58:41;8.88;;;5.13;;
46889;SDS011;32625;51.080;16.970;2023-04-25T06:01:11;8.25;;;5.28;;
46889;SDS011;32625;51.080;16.970;2023-04-25T06:03:44;8.05;;;5.20;;
46889;SDS011;32625;51.080;16.970;2023-04-25T06:06:11;6.75;;;4.85;;
46889;SDS011;32625;51.080;16.970;2023-04-25T06:08:39;9.82;;;6.28;;
46889;SDS011;32625;51.080;16.970;2023-04-25T06:11:10;9.68;;;5.45;;
46889;SDS011;32625;51.080;16.970;2023-04-25T06:13:37;8.93;;;4.95;;
46889;SDS011;32625;51.080;16.970;2023-04-25T06:16:05;5.00;;;4.35;;
46889;SDS011;32625;51.080;16.970;2023-04-25T06:22:04;7.95;;;4.60;;
46889;SDS011;32625;51.080;16.970;2023-04-25T06:24:43;4.97;;;4.22;;
46889;SDS011;32625;51.080;16.970;2023-04-25T06:27:10;6.05;;;4.10;;
46889;SDS011;32625;51.080;16.970;2023-04-25T06:29:38;5.57;;;4.00;;
46889;SDS011;32625;51.080;16.970;2023-04-25T06:32:05;6.85;;;5.03;;
46889;SDS011;32625;51.080;16.970;2023-04-25T06:34:33;7.10;;;4.45;;
46889;SDS011;32625;51.080;16.970;2023-04-25T06:37:01;9.23;;;4.38;;
46889;SDS011;32625;51.080;16.970;2023-04-25T06:39:28;6.50;;;4.32;;
46889;SDS011;32625;51.080;16.970;2023-04-25T06:41:55;6.03;;;4.03;;
46889;SDS011;32625;51.080;16.970;2023-04-25T06:45:04;8.05;;;4.45;;
46889;SDS011;32625;51.080;16.970;2023-04-25T06:47:34;6.38;;;4.00;;
46889;SDS011;32625;51.080;16.970;2023-04-25T06:50:02;8.88;;;3.97;;
46889;SDS011;32625;51.080;16.970;2023-04-25T06:52:36;11.38;;;4.43;;
46889;SDS011;32625;51.080;16.970;2023-04-25T06:55:03;9.95;;;4.40;;
46889;SDS011;32625;51.080;16.970;2023-04-25T06:57:50;11.02;;;4.07;;
46889;SDS011;32625;51.080;16.970;2023-04-25T07:00:54;7.57;;;4.35;;
46889;SDS011;32625;51.080;16.970;2023-04-25T07:03:24;10.13;;;4.40;;
46889;SDS011;32625;51.080;16.970;2023-04-25T07:09:18;8.80;;;3.60;;
46889;SDS011;32625;51.080;16.970;2023-04-25T07:11:47;8.82;;;3.55;;
46889;SDS011;32625;51.080;16.970;2023-04-25T07:14:14;7.05;;;4.20;;
46889;SDS011;32625;51.080;16.970;2023-04-25T07:16:41;9.48;;;4.20;;
46889;SDS011;32625;51.080;16.970;2023-04-25T07:19:09;7.40;;;3.53;;
46889;SDS011;32625;51.080;16.970;2023-04-25T07:21:37;5.10;;;3.00;;
46889;SDS011;32625;51.080;16.970;2023-04-25T07:24:05;9.00;;;3.67;;
46889;SDS011;32625;51.080;16.970;2023-04-25T07:26:44;10.07;;;3.35;;
46889;SDS011;32625;51.080;16.970;2023-04-25T07:29:25;7.63;;;3.50;;
46889;SDS011;32625;51.080;16.970;2023-04-25T07:31:55;8.70;;;3.22;;
46889;SDS011;32625;51.080;16.970;2023-04-25T07:34:22;13.27;;;4.55;;
46889;SDS011;32625;51.080;16.970;2023-04-25T07:36:49;6.10;;;2.85;;
46889;SDS011;32625;51.080;16.970;2023-04-25T07:39:20;4.82;;;3.17;;
46889;SDS011;32625;51.080;16.970;2023-04-25T07:41:47;8.15;;;3.38;;
46889;SDS011;32625;51.080;16.970;2023-04-25T07:44:21;6.28;;;3.88;;
46889;SDS011;32625;51.080;16.970;2023-04-25T07:46:48;6.50;;;4.00;;
46889;SDS011;32625;51.080;16.970;2023-04-25T07:49:16;10.93;;;3.88;;
46889;SDS011;32625;51.080;16.970;2023-04-25T07:51:43;9.38;;;4.10;;
46889;SDS011;32625;51.080;16.970;2023-04-25T07:54:14;8.90;;;3.58;;
46889;SDS011;32625;51.080;16.970;2023-04-25T07:56:47;6.07;;;3.42;;
46889;SDS011;32625;51.080;16.970;2023-04-25T07:59:22;9.75;;;4.45;;
46889;SDS011;32625;51.080;16.970;2023-04-25T08:01:49;9.90;;;4.55;;
46889;SDS011;32625;51.080;16.970;2023-04-25T08:04:18;7.57;;;5.30;;
46889;SDS011;32625;51.080;16.970;2023-04-25T08:07:00;7.88;;;5.45;;
46889;SDS011;32625;51.080;16.970;2023-04-25T08:09:32;8.77;;;5.28;;
46889;SDS011;32625;51.080;16.970;2023-04-25T08:12:09;8.93;;;6.30;;
46889;SDS011;32625;51.080;16.970;2023-04-25T08:14:36;11.40;;;6.70;;
46889;SDS011;32625;51.080;16.970;2023-04-25T08:17:06;8.68;;;6.03;;
46889;SDS011;32625;51.080;16.970;2023-04-25T08:19:39;13.43;;;6.82;;
46889;SDS011;32625;51.080;16.970;2023-04-25T08:22:11;11.35;;;7.15;;
46889;SDS011;32625;51.080;16.970;2023-04-25T08:24:50;10.32;;;7.15;;
46889;SDS011;32625;51.080;16.970;2023-04-25T08:27:17;9.32;;;6.85;;
46889;SDS011;32625;51.080;16.970;2023-04-25T08:29:45;9.95;;;7.40;;
46889;SDS011;32625;51.080;16.970;2023-04-25T08:32:13;10.60;;;7.25;;
46889;SDS011;32625;51.080;16.970;2023-04-25T08:34:51;12.18;;;7.22;;
46889;SDS011;32625;51.080;16.970;2023-04-25T08:37:20;19.23;;;13.18;;
46889;SDS011;32625;51.080;16.970;2023-04-25T08:40:09;12.35;;;7.55;;
46889;SDS011;32625;51.080;16.970;2023-04-25T08:45:33;16.25;;;9.43;;
46889;SDS011;32625;51.080;16.970;2023-04-25T08:48:01;10.88;;;7.72;;
46889;SDS011;32625;51.080;16.970;2023-04-25T08:50:30;9.43;;;7.32;;
46889;SDS011;32625;51.080;16.970;2023-04-25T08:52:57;9.50;;;6.55;;
46889;SDS011;32625;51.080;16.970;2023-04-25T08:57:59;9.63;;;7.15;;
46889;SDS011;32625;51.080;16.970;2023-04-25T09:00:28;12.00;;;7.28;;
46889;SDS011;32625;51.080;16.970;2023-04-25T09:02:57;11.40;;;6.18;;
46889;SDS011;32625;51.080;16.970;2023-04-25T09:05:29;10.70;;;6.53;;
46889;SDS011;32625;51.080;16.970;2023-04-25T09:07:57;7.55;;;5.45;;
46889;SDS011;32625;51.080;16.970;2023-04-25T09:10:24;10.25;;;6.20;;
46889;SDS011;32625;51.080;16.970;2023-04-25T09:13:04;13.68;;;5.78;;
46889;SDS011;32625;51.080;16.970;2023-04-25T09:15:59;8.82;;;6.00;;
46889;SDS011;32625;51.080;16.970;2023-04-25T09:18:40;6.78;;;5.20;;
46889;SDS011;32625;51.080;16.970;2023-04-25T09:21:14;6.63;;;5.20;;
46889;SDS011;32625;51.080;16.970;2023-04-25T09:23:45;11.73;;;5.70;;
46889;SDS011;32625;51.080;16.970;2023-04-25T09:26:16;14.52;;;5.55;;
46889;SDS011;32625;51.080;16.970;2023-04-25T09:28:45;9.13;;;5.75;;
46889;SDS011;32625;51.080;16.970;2023-04-25T09:31:23;9.35;;;4.82;;
46889;SDS011;32625;51.080;16.970;2023-04-25T09:34:01;9.50;;;5.40;;
46889;SDS011;32625;51.080;16.970;2023-04-25T09:36:38;5.47;;;4.68;;
46889;SDS011;32625;51.080;16.970;2023-04-25T09:39:32;3.90;;;3.50;;
46889;SDS011;32625;51.080;16.970;2023-04-25T09:42:11;7.97;;;5.07;;
46889;SDS011;32625;51.080;16.970;2023-04-25T09:44:41;7.43;;;4.75;;
46889;SDS011;32625;51.080;16.970;2023-04-25T09:47:11;7.75;;;5.45;;
46889;SDS011;32625;51.080;16.970;2023-04-25T09:49:41;8.55;;;5.00;;
46889;SDS011;32625;51.080;16.970;2023-04-25T09:52:15;7.03;;;5.30;;
46889;SDS011;32625;51.080;16.970;2023-04-25T09:54:58;7.82;;;5.18;;
46889;SDS011;32625;51.080;16.970;2023-04-25T09:57:31;7.00;;;4.72;;
46889;SDS011;32625;51.080;16.970;2023-04-25T10:00:00;10.18;;;4.85;;
46889;SDS011;32625;51.080;16.970;2023-04-25T10:02:39;10.63;;;5.32;;
46889;SDS011;32625;51.080;16.970;2023-04-25T10:05:17;5.65;;;5.03;;
46889;SDS011;32625;51.080;16.970;2023-04-25T10:07:45;10.50;;;5.10;;
46889;SDS011;32625;51.080;16.970;2023-04-25T10:10:15;6.35;;;4.72;;
46889;SDS011;32625;51.080;16.970;2023-04-25T10:12:43;7.38;;;4.70;;
46889;SDS011;32625;51.080;16.970;2023-04-25T10:15:12;8.15;;;4.75;;
46889;SDS011;32625;51.080;16.970;2023-04-25T10:17:40;9.77;;;5.40;;
46889;SDS011;32625;51.080;16.970;2023-04-25T10:20:08;7.95;;;5.10;;
46889;SDS011;32625;51.080;16.970;2023-04-25T10:22:46;8.40;;;5.45;;
46889;SDS011;32625;51.080;16.970;2023-04-25T10:25:15;9.52;;;5.78;;
46889;SDS011;32625;51.080;16.970;2023-04-25T10:27:43;10.35;;;5.40;;
46889;SDS011;32625;51.080;16.970;2023-04-25T10:30:13;6.78;;;5.50;;
46889;SDS011;32625;51.080;16.970;2023-04-25T10:32:43;6.57;;;4.47;;
46889;SDS011;32625;51.080;16.970;2023-04-25T10:40:37;6.97;;;3.92;;
46889;SDS011;32625;51.080;16.970;2023-04-25T10:45:56;6.63;;;4.00;;
46889;SDS011;32625;51.080;16.970;2023-04-25T10:48:26;6.65;;;3.92;;
46889;SDS011;32625;51.080;16.970;2023-04-25T10:51:10;5.95;;;3.75;;
46889;SDS011;32625;51.080;16.970;2023-04-25T10:53:43;5.20;;;3.85;;
46889;SDS011;32625;51.080;16.970;2023-04-25T10:59:11;6.72;;;4.15;;
46889;SDS011;32625;51.080;16.970;2023-04-25T11:01:40;7.20;;;3.70;;
46889;SDS011;32625;51.080;16.970;2023-04-25T11:04:24;9.93;;;3.60;;
46889;SDS011;32625;51.080;16.970;2023-04-25T11:07:19;12.50;;;3.05;;
46889;SDS011;32625;51.080;16.970;2023-04-25T11:10:01;8.40;;;2.97;;
46889;SDS011;32625;51.080;16.970;2023-04-25T11:12:30;6.60;;;2.88;;
46889;SDS011;32625;51.080;16.970;2023-04-25T11:14:59;5.55;;;2.75;;
46889;SDS011;32625;51.080;16.970;2023-04-25T11:17:27;5.43;;;2.42;;
46889;SDS011;32625;51.080;16.970;2023-04-25T11:19:55;6.22;;;2.50;;
46889;SDS011;32625;51.080;16.970;2023-04-25T11:22:23;5.55;;;2.70;;
46889;SDS011;32625;51.080;16.970;2023-04-25T11:24:50;4.97;;;2.30;;
46889;SDS011;32625;51.080;16.970;2023-04-25T11:27:18;3.60;;;2.13;;
46889;SDS011;32625;51.080;16.970;2023-04-25T11:29:45;9.63;;;2.13;;
46889;SDS011;32625;51.080;16.970;2023-04-25T11:32:17;4.07;;;1.95;;
46889;SDS011;32625;51.080;16.970;2023-04-25T11:34:46;4.40;;;2.20;;
46889;SDS011;32625;51.080;16.970;2023-04-25T11:37:14;3.15;;;1.95;;
46889;SDS011;32625;51.080;16.970;2023-04-25T11:39:44;6.45;;;2.45;;
46889;SDS011;32625;51.080;16.970;2023-04-25T11:42:13;3.90;;;1.85;;
46889;SDS011;32625;51.080;16.970;2023-04-25T11:44:40;6.22;;;2.40;;
46889;SDS011;32625;51.080;16.970;2023-04-25T11:47:07;6.90;;;2.42;;
46889;SDS011;32625;51.080;16.970;2023-04-25T11:49:35;3.28;;;1.80;;
46889;SDS011;32625;51.080;16.970;2023-04-25T11:52:02;5.40;;;2.20;;
46889;SDS011;32625;51.080;16.970;2023-04-25T11:54:29;6.25;;;2.13;;
46889;SDS011;32625;51.080;16.970;2023-04-25T11:56:57;6.75;;;2.10;;
46889;SDS011;32625;51.080;16.970;2023-04-25T11:59:24;4.72;;;2.10;;
46889;SDS011;32625;51.080;16.970;2023-04-25T12:01:52;2.30;;;1.60;;
46889;SDS011;32625;51.080;16.970;2023-04-25T12:04:21;3.75;;;2.15;;
46889;SDS011;32625;51.080;16.970;2023-04-25T12:06:51;4.80;;;2.13;;
46889;SDS011;32625;51.080;16.970;2023-04-25T12:09:20;3.63;;;1.65;;
46889;SDS011;32625;51.080;16.970;2023-04-25T12:11:55;6.10;;;2.25;;
46889;SDS011;32625;51.080;16.970;2023-04-25T12:14:25;6.72;;;1.90;;
46889;SDS011;32625;51.080;16.970;2023-04-25T12:16:57;3.05;;;2.10;;
46889;SDS011;32625;51.080;16.970;2023-04-25T12:19:27;3.45;;;1.77;;
46889;SDS011;32625;51.080;16.970;2023-04-25T12:22:02;3.10;;;1.77;;
46889;SDS011;32625;51.080;16.970;2023-04-25T12:24:32;4.82;;;1.98;;
46889;SDS011;32625;51.080;16.970;2023-04-25T12:27:05;9.43;;;2.05;;
46889;SDS011;32625;51.080;16.970;2023-04-25T12:29:35;3.70;;;1.90;;
46889;SDS011;32625;51.080;16.970;2023-04-25T12:32:05;3.55;;;1.88;;
46889;SDS011;32625;51.080;16.970;2023-04-25T12:34:32;7.07;;;2.55;;
46889;SDS011;32625;51.080;16.970;2023-04-25T12:37:02;3.00;;;1.92;;
46889;SDS011;32625;51.080;16.970;2023-04-25T12:39:29;4.32;;;2.10;;
46889;SDS011;32625;51.080;16.970;2023-04-25T12:41:56;6.50;;;1.90;;
46889;SDS011;32625;51.080;16.970;2023-04-25T12:44:24;4.25;;;2.00;;
46889;SDS011;32625;51.080;16.970;2023-04-25T12:46:52;2.92;;;1.77;;
46889;SDS011;32625;51.080;16.970;2023-04-25T12:49:19;3.28;;;1.90;;
46889;SDS011;32625;51.080;16.970;2023-04-25T12:51:46;3.83;;;1.95;;
46889;SDS011;32625;51.080;16.970;2023-04-25T12:54:14;4.45;;;1.80;;
46889;SDS011;32625;51.080;16.970;2023-04-25T12:56:41;5.75;;;2.00;;
46889;SDS011;32625;51.080;16.970;2023-04-25T12:59:08;3.38;;;1.58;;
46889;SDS011;32625;51.080;16.970;2023-04-25T13:01:35;2.40;;;1.75;;
46889;SDS011;32625;51.080;16.970;2023-04-25T13:04:03;4.32;;;1.85;;
46889;SDS011;32625;51.080;16.970;2023-04-25T13:06:30;5.15;;;2.00;;
46889;SDS011;32625;51.080;16.970;2023-04-25T13:08:57;4.18;;;2.08;;
46889;SDS011;32625;51.080;16.970;2023-04-25T13:11:25;4.50;;;1.73;;
46889;SDS011;32625;51.080;16.970;2023-04-25T13:13:52;3.97;;;2.25;;
46889;SDS011;32625;51.080;16.970;2023-04-25T13:16:19;3.90;;;1.92;;
46889;SDS011;32625;51.080;16.970;2023-04-25T13:18:48;3.25;;;1.85;;
46889;SDS011;32625;51.080;16.970;2023-04-25T13:21:16;6.80;;;1.90;;
46889;SDS011;32625;51.080;16.970;2023-04-25T13:23:44;2.30;;;1.67;;
46889;SDS011;32625;51.080;16.970;2023-04-25T13:26:13;12.48;;;2.03;;
46889;SDS011;32625;51.080;16.970;2023-04-25T13:28:40;1.92;;;1.60;;
46889;SDS011;32625;51.080;16.970;2023-04-25T13:31:10;3.55;;;2.00;;
46889;SDS011;32625;51.080;16.970;2023-04-25T13:33:37;4.15;;;1.70;;
46889;SDS011;32625;51.080;16.970;2023-04-25T13:36:04;3.42;;;1.73;;
46889;SDS011;32625;51.080;16.970;2023-04-25T13:38:32;2.80;;;1.65;;
46889;SDS011;32625;51.080;16.970;2023-04-25T13:40:59;3.60;;;1.88;;
46889;SDS011;32625;51.080;16.970;2023-04-25T13:43:27;3.38;;;1.90;;
46889;SDS011;32625;51.080;16.970;2023-04-25T13:45:54;4.18;;;1.98;;
46889;SDS011;32625;51.080;16.970;2023-04-25T13:48:21;4.32;;;2.63;;
46889;SDS011;32625;51.080;16.970;2023-04-25T13:50:49;4.75;;;2.17;;
46889;SDS011;32625;51.080;16.970;2023-04-25T13:53:17;2.78;;;1.95;;
46889;SDS011;32625;51.080;16.970;2023-04-25T13:55:44;5.55;;;2.10;;
46889;SDS011;32625;51.080;16.970;2023-04-25T13:58:12;4.72;;;1.90;;
46889;SDS011;32625;51.080;16.970;2023-04-25T14:00:39;5.18;;;2.38;;
46889;SDS011;32625;51.080;16.970;2023-04-25T14:03:09;4.88;;;2.50;;
46889;SDS011;32625;51.080;16.970;2023-04-25T14:05:37;4.00;;;1.88;;
46889;SDS011;32625;51.080;16.970;2023-04-25T14:08:06;2.55;;;1.80;;
46889;SDS011;32625;51.080;16.970;2023-04-25T14:10:34;3.33;;;2.10;;
46889;SDS011;32625;51.080;16.970;2023-04-25T14:13:02;4.10;;;2.10;;
46889;SDS011;32625;51.080;16.970;2023-04-25T14:15:32;3.40;;;2.28;;
46889;SDS011;32625;51.080;16.970;2023-04-25T14:18:00;4.03;;;2.35;;
46889;SDS011;32625;51.080;16.970;2023-04-25T14:20:28;4.22;;;2.17;;
46889;SDS011;32625;51.080;16.970;2023-04-25T14:22:56;4.18;;;2.13;;
46889;SDS011;32625;51.080;16.970;2023-04-25T14:25:24;3.92;;;2.00;;
46889;SDS011;32625;51.080;16.970;2023-04-25T14:27:52;4.43;;;2.33;;
46889;SDS011;32625;51.080;16.970;2023-04-25T14:30:20;4.13;;;1.95;;
46889;SDS011;32625;51.080;16.970;2023-04-25T14:32:48;6.22;;;2.13;;
46889;SDS011;32625;51.080;16.970;2023-04-25T14:35:16;5.57;;;1.80;;
46889;SDS011;32625;51.080;16.970;2023-04-25T14:37:45;6.93;;;1.95;;
46889;SDS011;32625;51.080;16.970;2023-04-25T14:40:12;6.22;;;2.30;;
46889;SDS011;32625;51.080;16.970;2023-04-25T14:42:41;4.43;;;2.05;;
46889;SDS011;32625;51.080;16.970;2023-04-25T14:45:09;4.43;;;1.92;;
46889;SDS011;32625;51.080;16.970;2023-04-25T14:47:36;2.53;;;2.00;;
46889;SDS011;32625;51.080;16.970;2023-04-25T14:50:05;4.60;;;2.25;;
46889;SDS011;32625;51.080;16.970;2023-04-25T14:52:33;2.78;;;1.67;;
46889;SDS011;32625;51.080;16.970;2023-04-25T14:55:00;4.70;;;1.88;;
46889;SDS011;32625;51.080;16.970;2023-04-25T14:57:34;8.23;;;1.80;;
46889;SDS011;32625;51.080;16.970;2023-04-25T15:00:01;3.22;;;1.80;;
46889;SDS011;32625;51.080;16.970;2023-04-25T15:02:32;4.07;;;2.10;;
46889;SDS011;32625;51.080;16.970;2023-04-25T15:04:59;4.15;;;1.92;;
46889;SDS011;32625;51.080;16.970;2023-04-25T15:07:27;5.50;;;2.20;;
46889;SDS011;32625;51.080;16.970;2023-04-25T15:09:54;4.35;;;2.33;;
46889;SDS011;32625;51.080;16.970;2023-04-25T15:12:23;9.55;;;2.30;;
46889;SDS011;32625;51.080;16.970;2023-04-25T15:14:52;3.95;;;1.80;;
46889;SDS011;32625;51.080;16.970;2023-04-25T15:17:19;5.22;;;1.92;;
46889;SDS011;32625;51.080;16.970;2023-04-25T15:19:46;4.90;;;2.22;;
46889;SDS011;32625;51.080;16.970;2023-04-25T15:22:14;4.38;;;2.30;;
46889;SDS011;32625;51.080;16.970;2023-04-25T15:24:41;3.47;;;2.42;;
46889;SDS011;32625;51.080;16.970;2023-04-25T15:27:08;4.85;;;2.40;;
46889;SDS011;32625;51.080;16.970;2023-04-25T15:29:35;6.22;;;2.55;;
46889;SDS011;32625;51.080;16.970;2023-04-25T15:32:03;8.10;;;2.65;;
46889;SDS011;32625;51.080;16.970;2023-04-25T15:34:30;3.42;;;2.22;;
46889;SDS011;32625;51.080;16.970;2023-04-25T15:36:58;6.00;;;2.58;;
46889;SDS011;32625;51.080;16.970;2023-04-25T15:39:26;9.07;;;2.50;;
46889;SDS011;32625;51.080;16.970;2023-04-25T15:41:53;6.40;;;3.25;;
46889;SDS011;32625;51.080;16.970;2023-04-25T15:44:20;6.28;;;2.92;;
46889;SDS011;32625;51.080;16.970;2023-04-25T15:46:47;4.68;;;2.80;;
46889;SDS011;32625;51.080;16.970;2023-04-25T15:49:14;6.07;;;2.55;;
46889;SDS011;32625;51.080;16.970;2023-04-25T15:51:41;6.63;;;3.03;;
46889;SDS011;32625;51.080;16.970;2023-04-25T15:54:09;5.88;;;2.80;;
46889;SDS011;32625;51.080;16.970;2023-04-25T15:56:36;5.82;;;3.00;;
46889;SDS011;32625;51.080;16.970;2023-04-25T15:59:03;6.85;;;3.20;;
46889;SDS011;32625;51.080;16.970;2023-04-25T16:01:30;5.53;;;2.80;;
46889;SDS011;32625;51.080;16.970;2023-04-25T16:03:57;6.07;;;2.63;;
46889;SDS011;32625;51.080;16.970;2023-04-25T16:06:25;4.72;;;2.17;;
46889;SDS011;32625;51.080;16.970;2023-04-25T16:08:53;5.63;;;2.67;;
46889;SDS011;32625;51.080;16.970;2023-04-25T16:11:20;3.20;;;2.33;;
46889;SDS011;32625;51.080;16.970;2023-04-25T16:13:48;4.50;;;2.53;;
46889;SDS011;32625;51.080;16.970;2023-04-25T16:16:16;5.55;;;2.63;;
46889;SDS011;32625;51.080;16.970;2023-04-25T16:18:43;7.07;;;2.65;;
46889;SDS011;32625;51.080;16.970;2023-04-25T16:21:10;6.10;;;2.78;;
46889;SDS011;32625;51.080;16.970;2023-04-25T16:23:42;6.10;;;3.25;;
46889;SDS011;32625;51.080;16.970;2023-04-25T16:26:09;6.85;;;2.63;;
46889;SDS011;32625;51.080;16.970;2023-04-25T16:28:37;4.32;;;2.78;;
46889;SDS011;32625;51.080;16.970;2023-04-25T16:31:04;4.30;;;2.70;;
46889;SDS011;32625;51.080;16.970;2023-04-25T16:33:33;4.05;;;2.50;;
46889;SDS011;32625;51.080;16.970;2023-04-25T16:36:00;5.78;;;3.05;;
46889;SDS011;32625;51.080;16.970;2023-04-25T16:38:27;4.32;;;2.88;;
46889;SDS011;32625;51.080;16.970;2023-04-25T16:40:54;7.35;;;3.30;;
46889;SDS011;32625;51.080;16.970;2023-04-25T16:43:21;4.95;;;2.60;;
46889;SDS011;32625;51.080;16.970;2023-04-25T16:45:49;5.07;;;3.25;;
46889;SDS011;32625;51.080;16.970;2023-04-25T16:48:16;4.47;;;2.85;;
46889;SDS011;32625;51.080;16.970;2023-04-25T16:50:46;4.95;;;3.05;;
46889;SDS011;32625;51.080;16.970;2023-04-25T16:53:13;4.80;;;3.10;;
46889;SDS011;32625;51.080;16.970;2023-04-25T16:55:40;4.80;;;2.47;;
46889;SDS011;32625;51.080;16.970;2023-04-25T16:58:07;5.82;;;2.83;;
46889;SDS011;32625;51.080;16.970;2023-04-25T17:00:37;4.10;;;2.40;;
46889;SDS011;32625;51.080;16.970;2023-04-25T17:03:06;5.80;;;2.50;;
46889;SDS011;32625;51.080;16.970;2023-04-25T17:05:34;6.55;;;2.63;;
46889;SDS011;32625;51.080;16.970;2023-04-25T17:08:02;9.50;;;3.08;;
46889;SDS011;32625;51.080;16.970;2023-04-25T17:10:29;5.43;;;2.65;;
46889;SDS011;32625;51.080;16.970;2023-04-25T17:12:57;6.28;;;3.13;;
46889;SDS011;32625;51.080;16.970;2023-04-25T17:15:24;7.57;;;3.20;;
46889;SDS011;32625;51.080;16.970;2023-04-25T17:17:52;4.88;;;3.13;;
46889;SDS011;32625;51.080;16.970;2023-04-25T17:20:19;7.90;;;3.22;;
46889;SDS011;32625;51.080;16.970;2023-04-25T17:22:47;4.97;;;3.00;;
46889;SDS011;32625;51.080;16.970;2023-04-25T17:25:15;7.43;;;3.20;;
46889;SDS011;32625;51.080;16.970;2023-04-25T17:27:42;8.65;;;3.70;;
46889;SDS011;32625;51.080;16.970;2023-04-25T17:30:09;9.38;;;3.80;;
46889;SDS011;32625;51.080;16.970;2023-04-25T17:32:38;11.23;;;5.43;;
46889;SDS011;32625;51.080;16.970;2023-04-25T17:35:05;12.65;;;5.00;;
46889;SDS011;32625;51.080;16.970;2023-04-25T17:37:32;13.48;;;5.65;;
46889;SDS011;32625;51.080;16.970;2023-04-25T17:39:59;13.80;;;5.88;;
46889;SDS011;32625;51.080;16.970;2023-04-25T17:42:27;10.52;;;4.70;;
46889;SDS011;32625;51.080;16.970;2023-04-25T17:44:54;12.90;;;4.22;;
46889;SDS011;32625;51.080;16.970;2023-04-25T17:47:22;9.43;;;4.05;;
46889;SDS011;32625;51.080;16.970;2023-04-25T17:49:49;9.82;;;4.13;;
46889;SDS011;32625;51.080;16.970;2023-04-25T17:52:16;11.40;;;4.38;;
46889;SDS011;32625;51.080;16.970;2023-04-25T17:54:44;11.73;;;4.25;;
46889;SDS011;32625;51.080;16.970;2023-04-25T17:57:14;10.25;;;4.10;;
46889;SDS011;32625;51.080;16.970;2023-04-25T17:59:42;9.77;;;4.10;;
46889;SDS011;32625;51.080;16.970;2023-04-25T18:02:09;15.32;;;4.65;;
46889;SDS011;32625;51.080;16.970;2023-04-25T18:04:37;9.55;;;4.60;;
46889;SDS011;32625;51.080;16.970;2023-04-25T18:07:04;10.80;;;4.30;;
46889;SDS011;32625;51.080;16.970;2023-04-25T18:09:32;9.55;;;4.35;;
46889;SDS011;32625;51.080;16.970;2023-04-25T18:12:00;10.77;;;4.45;;
46889;SDS011;32625;51.080;16.970;2023-04-25T18:14:28;15.70;;;4.80;;
46889;SDS011;32625;51.080;16.970;2023-04-25T18:16:56;12.13;;;4.43;;
46889;SDS011;32625;51.080;16.970;2023-04-25T18:19:23;10.38;;;4.72;;
46889;SDS011;32625;51.080;16.970;2023-04-25T18:21:51;7.50;;;4.13;;
46889;SDS011;32625;51.080;16.970;2023-04-25T18:24:23;12.98;;;4.90;;
46889;SDS011;32625;51.080;16.970;2023-04-25T18:26:52;13.80;;;5.00;;
46889;SDS011;32625;51.080;16.970;2023-04-25T18:29:21;10.65;;;4.88;;
46889;SDS011;32625;51.080;16.970;2023-04-25T18:31:59;10.10;;;4.22;;
46889;SDS011;32625;51.080;16.970;2023-04-25T18:34:27;15.85;;;4.78;;
46889;SDS011;32625;51.080;16.970;2023-04-25T18:36:54;10.75;;;4.45;;
46889;SDS011;32625;51.080;16.970;2023-04-25T18:39:22;13.48;;;6.22;;
46889;SDS011;32625;51.080;16.970;2023-04-25T18:41:51;19.33;;;6.70;;
46889;SDS011;32625;51.080;16.970;2023-04-25T18:44:26;11.18;;;6.35;;
46889;SDS011;32625;51.080;16.970;2023-04-25T18:46:53;15.38;;;7.13;;
46889;SDS011;32625;51.080;16.970;2023-04-25T18:49:21;19.13;;;6.68;;
46889;SDS011;32625;51.080;16.970;2023-04-25T18:51:48;17.35;;;6.07;;
46889;SDS011;32625;51.080;16.970;2023-04-25T18:54:16;16.98;;;5.78;;
46889;SDS011;32625;51.080;16.970;2023-04-25T18:56:43;12.07;;;5.38;;
46889;SDS011;32625;51.080;16.970;2023-04-25T18:59:10;12.60;;;5.90;;
46889;SDS011;32625;51.080;16.970;2023-04-25T19:01:40;14.23;;;5.80;;
46889;SDS011;32625;51.080;16.970;2023-04-25T19:04:08;18.70;;;6.30;;
46889;SDS011;32625;51.080;16.970;2023-04-25T19:06:35;16.83;;;5.88;;
46889;SDS011;32625;51.080;16.970;2023-04-25T19:09:02;14.85;;;5.80;;
46889;SDS011;32625;51.080;16.970;2023-04-25T19:11:30;16.88;;;6.40;;
46889;SDS011;32625;51.080;16.970;2023-04-25T19:13:57;17.40;;;5.97;;
46889;SDS011;32625;51.080;16.970;2023-04-25T19:16:25;15.88;;;5.78;;
